Time;durP1;ratioP1;P1;durP2;ratioP2;P2;SDS_P1;SDS_P2;PMS_P1;PMS_P2;Temp;Humidity;BMP_temperature;BMP_pressure;BME280_temperature;BME280_humidity;BME280_pressure;Samples;Min_cycle;Max_cycle;Signal;HPM_P1;HPM_P2
2023/09/13 00:01:42;;;;;;;2.00;1.90;;;;;;;;;;5101449;28;20628;-67
2023/09/13 00:04:11;;;;;;;3.90;2.00;;;;;;;;;;5101737;28;20270;-68
2023/09/13 00:06:39;;;;;;;2.10;1.90;;;;;;;;;;5101647;28;20205;-68
2023/09/13 00:09:08;;;;;;;2.43;2.03;;;;;;;;;;5101249;28;20202;-67
2023/09/13 00:11:36;;;;;;;2.50;2.20;;;;;;;;;;5101261;28;20239;-67
2023/09/13 00:14:06;;;;;;;2.80;1.90;;;;;;;;;;5101643;28;20222;-68
2023/09/13 00:16:33;;;;;;;3.30;2.23;;;;;;;;;;5101210;28;20615;-67
2023/09/13 00:19:04;;;;;;;2.10;1.90;;;;;;;;;;5101225;28;20225;-67
2023/09/13 00:21:32;;;;;;;3.63;2.53;;;;;;;;;;5101163;28;20231;-67
2023/09/13 00:24:00;;;;;;;2.63;2.40;;;;;;;;;;5101270;28;20206;-67
2023/09/13 00:26:28;;;;;;;3.47;2.40;;;;;;;;;;5101089;28;20207;-67
2023/09/13 00:28:57;;;;;;;3.07;2.33;;;;;;;;;;5101020;28;20212;-67
2023/09/13 00:31:27;;;;;;;5.17;2.37;;;;;;;;;;5101134;28;20293;-67
2023/09/13 00:33:55;;;;;;;2.70;2.50;;;;;;;;;;5101182;28;20204;-67
2023/09/13 00:36:23;;;;;;;6.97;2.40;;;;;;;;;;5100893;28;20641;-67
2023/09/13 00:38:51;;;;;;;2.93;2.30;;;;;;;;;;5100830;28;20212;-67
2023/09/13 00:41:19;;;;;;;3.57;2.40;;;;;;;;;;5100641;28;20224;-67
2023/09/13 00:43:47;;;;;;;4.13;2.27;;;;;;;;;;5100992;28;20216;-67
2023/09/13 00:46:15;;;;;;;3.27;2.67;;;;;;;;;;5100699;28;20211;-67
2023/09/13 00:48:46;;;;;;;2.47;2.27;;;;;;;;;;5100600;28;20232;-67
2023/09/13 00:51:14;;;;;;;4.37;2.50;;;;;;;;;;5093164;28;20225;-67
2023/09/13 00:53:43;;;;;;;2.53;2.33;;;;;;;;;;5100404;28;20617;-67
2023/09/13 00:56:12;;;;;;;2.60;2.37;;;;;;;;;;5100007;28;20210;-68
2023/09/13 00:58:40;;;;;;;3.00;2.50;;;;;;;;;;5100355;28;20245;-68
2023/09/13 01:01:09;;;;;;;2.43;2.20;;;;;;;;;;5086429;28;20221;-67
2023/09/13 01:03:38;;;;;;;2.67;2.47;;;;;;;;;;5096695;28;20206;-66
2023/09/13 01:06:09;;;;;;;4.97;2.63;;;;;;;;;;5098273;28;20226;-68
2023/09/13 01:08:39;;;;;;;5.10;2.50;;;;;;;;;;5099331;28;20209;-66
2023/09/13 01:11:07;;;;;;;3.17;2.37;;;;;;;;;;5096866;28;20741;-66
2023/09/13 01:13:35;;;;;;;2.93;2.27;;;;;;;;;;5100426;28;20208;-66
2023/09/13 01:16:09;;;;;;;2.33;2.07;;;;;;;;;;5099857;28;20663;-67
2023/09/13 01:18:41;;;;;;;4.67;2.63;;;;;;;;;;5099425;28;20199;-67
2023/09/13 01:21:19;;;;;;;2.60;2.40;;;;;;;;;;5099153;28;20216;-67
2023/09/13 01:24:00;;;;;;;2.83;2.20;;;;;;;;;;5099376;28;20230;-66
2023/09/13 01:26:36;;;;;;;2.33;2.13;;;;;;;;;;5100042;28;20640;-69
2023/09/13 01:29:08;;;;;;;2.67;2.07;;;;;;;;;;5099830;28;20236;-68
2023/09/13 01:31:39;;;;;;;2.43;2.23;;;;;;;;;;5098298;28;20250;-68
2023/09/13 01:34:07;;;;;;;3.10;2.00;;;;;;;;;;5099779;28;20681;-68
2023/09/13 01:36:35;;;;;;;2.97;2.10;;;;;;;;;;5099941;28;20202;-67
2023/09/13 01:39:04;;;;;;;2.13;1.93;;;;;;;;;;5099801;28;20203;-67
2023/09/13 01:41:34;;;;;;;2.57;2.37;;;;;;;;;;5099139;28;20614;-66
2023/09/13 01:44:03;;;;;;;2.40;2.17;;;;;;;;;;5099926;28;20215;-67
2023/09/13 01:46:35;;;;;;;2.37;2.00;;;;;;;;;;5099660;28;20233;-66
2023/09/13 01:49:03;;;;;;;2.20;2.10;;;;;;;;;;5099695;28;20237;-66
2023/09/13 01:51:32;;;;;;;2.60;2.30;;;;;;;;;;5099517;28;20286;-68
2023/09/13 01:54:01;;;;;;;2.60;2.40;;;;;;;;;;5093246;28;20252;-68
2023/09/13 01:56:29;;;;;;;2.23;1.77;;;;;;;;;;5095366;28;20291;-68
2023/09/13 01:58:57;;;;;;;3.40;2.40;;;;;;;;;;5099102;28;20589;-68
2023/09/13 02:01:25;;;;;;;1.97;1.77;;;;;;;;;;5099002;28;20264;-68
2023/09/13 02:03:54;;;;;;;2.23;2.03;;;;;;;;;;5098538;28;20258;-66
2023/09/13 02:06:22;;;;;;;2.20;2.00;;;;;;;;;;5098782;28;20684;-67
2023/09/13 02:08:51;;;;;;;3.07;1.90;;;;;;;;;;5098813;28;20251;-66
2023/09/13 02:11:19;;;;;;;3.80;2.33;;;;;;;;;;5098488;28;20229;-66
2023/09/13 02:13:47;;;;;;;2.87;2.23;;;;;;;;;;5099302;28;20217;-66
2023/09/13 02:16:19;;;;;;;3.47;1.87;;;;;;;;;;5099100;28;20202;-65
2023/09/13 02:18:47;;;;;;;2.23;2.03;;;;;;;;;;5098546;28;20205;-66
2023/09/13 02:21:17;;;;;;;2.10;2.00;;;;;;;;;;5098641;28;20231;-67
2023/09/13 02:23:45;;;;;;;2.03;1.80;;;;;;;;;;5098552;28;20667;-67
2023/09/13 02:26:20;;;;;;;2.23;2.00;;;;;;;;;;5098488;28;20613;-67
2023/09/13 02:28:48;;;;;;;4.77;1.87;;;;;;;;;;5098667;28;20231;-68
2023/09/13 02:31:21;;;;;;;2.47;2.27;;;;;;;;;;5098466;28;20238;-67
2023/09/13 02:33:49;;;;;;;3.00;2.10;;;;;;;;;;5098913;28;20212;-67
2023/09/13 02:36:19;;;;;;;2.83;2.33;;;;;;;;;;5098865;28;20247;-67
2023/09/13 02:38:47;;;;;;;5.50;3.03;;;;;;;;;;5098412;28;20205;-68
2023/09/13 02:41:15;;;;;;;3.53;2.60;;;;;;;;;;5098425;28;20235;-67
2023/09/13 02:43:43;;;;;;;2.40;2.20;;;;;;;;;;5098600;28;20216;-67
2023/09/13 02:46:12;;;;;;;2.50;2.30;;;;;;;;;;5098398;28;20232;-67
2023/09/13 02:48:40;;;;;;;1.77;1.67;;;;;;;;;;5098566;28;20290;-68
2023/09/13 02:51:11;;;;;;;1.93;1.83;;;;;;;;;;5098177;28;20296;-67
2023/09/13 02:53:41;;;;;;;1.90;1.63;;;;;;;;;;5098117;28;20212;-67
2023/09/13 02:56:10;;;;;;;4.10;1.97;;;;;;;;;;5098000;28;20209;-68
2023/09/13 02:58:38;;;;;;;2.77;2.30;;;;;;;;;;5098107;28;20250;-67
2023/09/13 03:01:10;;;;;;;2.57;1.70;;;;;;;;;;5085918;28;20245;-67
2023/09/13 03:03:39;;;;;;;1.80;1.70;;;;;;;;;;5098437;28;20266;-68
2023/09/13 03:06:11;;;;;;;3.10;1.50;;;;;;;;;;5097964;28;20668;-68
2023/09/13 03:08:41;;;;;;;2.00;1.90;;;;;;;;;;5097929;28;20239;-68
2023/09/13 03:11:10;;;;;;;3.67;2.10;;;;;;;;;;5097624;28;20252;-68
2023/09/13 03:13:38;;;;;;;2.40;2.20;;;;;;;;;;5098226;28;20202;-68
2023/09/13 03:16:12;;;;;;;3.43;2.30;;;;;;;;;;5098194;28;20205;-68
2023/09/13 03:18:41;;;;;;;3.27;2.57;;;;;;;;;;5098065;28;20260;-68
2023/09/13 03:21:09;;;;;;;2.30;2.10;;;;;;;;;;5098046;28;20298;-68
2023/09/13 03:23:38;;;;;;;3.80;2.70;;;;;;;;;;5097688;28;20730;-68
2023/09/13 03:26:13;;;;;;;4.27;2.47;;;;;;;;;;5097822;28;20213;-68
2023/09/13 03:28:43;;;;;;;4.53;2.57;;;;;;;;;;5097722;28;20263;-67
2023/09/13 03:31:11;;;;;;;4.37;2.93;;;;;;;;;;5096935;28;20237;-67
2023/09/13 03:33:40;;;;;;;3.03;2.30;;;;;;;;;;5097741;28;20629;-67
2023/09/13 03:36:09;;;;;;;2.83;2.53;;;;;;;;;;5098026;28;20249;-68
2023/09/13 03:38:38;;;;;;;3.83;2.90;;;;;;;;;;5097417;28;20212;-68
2023/09/13 03:41:06;;;;;;;2.63;2.10;;;;;;;;;;5097311;28;20222;-68
2023/09/13 03:43:36;;;;;;;2.53;2.33;;;;;;;;;;5097663;28;20216;-67
2023/09/13 03:46:04;;;;;;;3.20;2.20;;;;;;;;;;5097609;28;20230;-67
2023/09/13 03:48:33;;;;;;;3.60;1.97;;;;;;;;;;5097799;28;20205;-68
2023/09/13 03:51:01;;;;;;;2.53;2.10;;;;;;;;;;5097735;28;20246;-67
2023/09/13 03:53:29;;;;;;;3.20;2.30;;;;;;;;;;5097484;28;20564;-67
2023/09/13 03:55:58;;;;;;;2.40;2.00;;;;;;;;;;5097498;28;20240;-67
2023/09/13 03:58:26;;;;;;;4.00;2.33;;;;;;;;;;5097436;28;20275;-67
2023/09/13 04:00:56;;;;;;;3.93;2.50;;;;;;;;;;5097578;28;20230;-66
2023/09/13 04:03:24;;;;;;;3.67;2.10;;;;;;;;;;5097434;28;20628;-66
2023/09/13 04:05:52;;;;;;;3.37;2.30;;;;;;;;;;5091740;28;20196;-68
2023/09/13 04:08:20;;;;;;;2.77;2.40;;;;;;;;;;5092911;28;20296;-68
2023/09/13 04:10:49;;;;;;;2.87;2.67;;;;;;;;;;5097421;28;20254;-68
2023/09/13 04:13:17;;;;;;;2.77;2.57;;;;;;;;;;5097274;28;20237;-68
2023/09/13 04:15:45;;;;;;;5.70;2.60;;;;;;;;;;5097427;28;20628;-68
2023/09/13 04:18:15;;;;;;;4.43;2.63;;;;;;;;;;5097471;28;20206;-68
2023/09/13 04:20:43;;;;;;;3.37;2.40;;;;;;;;;;5097098;28;20259;-67
2023/09/13 04:23:11;;;;;;;3.97;2.53;;;;;;;;;;5097242;28;20203;-67
2023/09/13 04:25:39;;;;;;;4.30;3.00;;;;;;;;;;5088519;28;20207;-66
2023/09/13 04:28:07;;;;;;;4.53;2.50;;;;;;;;;;5094279;28;20202;-66
2023/09/13 04:30:35;;;;;;;2.67;2.47;;;;;;;;;;5096489;28;20225;-67
2023/09/13 04:33:04;;;;;;;3.43;2.60;;;;;;;;;;5095602;28;20221;-67
2023/09/13 04:35:40;;;;;;;3.20;2.50;;;;;;;;;;5095428;28;20231;-67
2023/09/13 04:38:08;;;;;;;4.20;2.33;;;;;;;;;;5096891;28;20629;-67
2023/09/13 04:40:36;;;;;;;4.90;2.63;;;;;;;;;;5096559;28;20248;-67
2023/09/13 04:43:23;;;;;;;4.00;2.93;;;;;;;;;;5100139;28;20223;-67
2023/09/13 04:45:52;;;;;;;3.60;3.00;;;;;;;;;;5100766;28;20228;-68
2023/09/13 04:48:20;;;;;;;2.73;2.53;;;;;;;;;;5096512;28;20254;-67
2023/09/13 04:50:50;;;;;;;3.70;2.77;;;;;;;;;;5099268;28;20247;-66
2023/09/13 04:53:18;;;;;;;5.23;2.93;;;;;;;;;;5100650;28;20227;-69
2023/09/13 04:55:46;;;;;;;3.53;2.90;;;;;;;;;;5099870;28;20201;-69
2023/09/13 04:58:14;;;;;;;4.40;3.00;;;;;;;;;;5100292;28;20230;-70
2023/09/13 05:00:42;;;;;;;5.07;3.07;;;;;;;;;;5100132;28;20282;-69
2023/09/13 05:03:10;;;;;;;4.57;3.37;;;;;;;;;;5100240;28;20235;-69
2023/09/13 05:05:40;;;;;;;6.03;3.07;;;;;;;;;;5100494;28;20208;-71
2023/09/13 05:08:09;;;;;;;5.60;3.13;;;;;;;;;;5100556;28;20287;-70
2023/09/13 05:10:39;;;;;;;4.97;2.87;;;;;;;;;;5100385;28;20228;-69
2023/09/13 05:13:07;;;;;;;3.10;2.80;;;;;;;;;;5099892;28;20573;-68
2023/09/13 05:15:42;;;;;;;4.37;2.73;;;;;;;;;;5100000;28;20202;-68
2023/09/13 05:18:10;;;;;;;6.17;2.93;;;;;;;;;;5099701;28;20203;-70
2023/09/13 05:20:38;;;;;;;6.17;3.10;;;;;;;;;;5099345;28;20218;-68
2023/09/13 05:23:06;;;;;;;3.27;2.93;;;;;;;;;;5108508;28;20664;-69
2023/09/13 05:25:35;;;;;;;3.53;2.80;;;;;;;;;;5099315;28;20270;-68
2023/09/13 05:28:03;;;;;;;5.70;3.67;;;;;;;;;;5094397;28;20665;-70
2023/09/13 05:30:33;;;;;;;3.70;2.97;;;;;;;;;;5088944;28;20263;-69
2023/09/13 05:33:02;;;;;;;4.73;3.10;;;;;;;;;;5099465;28;20588;-69
2023/09/13 05:35:31;;;;;;;4.93;3.17;;;;;;;;;;5099632;28;20218;-69
2023/09/13 05:37:59;;;;;;;5.57;3.13;;;;;;;;;;5099732;28;20216;-70
2023/09/13 05:40:28;;;;;;;3.70;3.30;;;;;;;;;;5099497;28;20560;-71
2023/09/13 05:42:57;;;;;;;5.50;3.20;;;;;;;;;;5099419;28;20208;-69
2023/09/13 05:45:25;;;;;;;4.57;3.50;;;;;;;;;;5099541;28;20269;-71
2023/09/13 05:47:53;;;;;;;5.37;3.73;;;;;;;;;;5099307;28;20241;-70
2023/09/13 05:50:22;;;;;;;5.40;3.77;;;;;;;;;;5099170;28;20225;-71
2023/09/13 05:52:53;;;;;;;3.97;3.57;;;;;;;;;;5098742;28;20236;-71
2023/09/13 05:55:21;;;;;;;6.40;4.10;;;;;;;;;;5098800;28;20226;-69
2023/09/13 05:57:51;;;;;;;4.20;3.80;;;;;;;;;;5099292;28;20243;-72
2023/09/13 06:00:21;;;;;;;4.80;3.30;;;;;;;;;;5095756;28;20241;-71
2023/09/13 06:02:49;;;;;;;7.53;3.33;;;;;;;;;;5091386;28;20216;-72
2023/09/13 06:05:17;;;;;;;3.63;3.33;;;;;;;;;;5098867;28;20621;-71
2023/09/13 06:07:45;;;;;;;5.70;3.70;;;;;;;;;;5099313;28;20267;-72
2023/09/13 06:10:14;;;;;;;6.63;4.20;;;;;;;;;;5099039;28;20231;-74
2023/09/13 06:12:43;;;;;;;4.80;3.70;;;;;;;;;;5099185;28;20238;-71
2023/09/13 06:15:11;;;;;;;4.80;3.00;;;;;;;;;;5110428;28;20210;-73
2023/09/13 06:17:40;;;;;;;5.20;3.00;;;;;;;;;;5098723;28;20202;-71
2023/09/13 06:20:09;;;;;;;4.97;2.97;;;;;;;;;;5087076;28;20322;-71
2023/09/13 06:22:37;;;;;;;3.90;2.50;;;;;;;;;;5098570;28;20233;-71
2023/09/13 06:25:06;;;;;;;2.93;2.60;;;;;;;;;;5098594;28;20205;-71
2023/09/13 06:27:37;;;;;;;2.67;2.47;;;;;;;;;;5098664;28;20209;-70
2023/09/13 06:30:06;;;;;;;3.50;2.77;;;;;;;;;;5099021;28;20725;-72
2023/09/13 06:32:34;;;;;;;4.60;3.03;;;;;;;;;;5098374;28;20208;-71
2023/09/13 06:35:11;;;;;;;4.57;3.00;;;;;;;;;;5098457;28;20200;-72
2023/09/13 06:37:43;;;;;;;4.23;2.93;;;;;;;;;;5098652;28;20239;-71
2023/09/13 06:40:13;;;;;;;3.77;3.30;;;;;;;;;;5095155;28;20305;-72
2023/09/13 06:42:42;;;;;;;3.53;2.60;;;;;;;;;;5098249;28;20395;-70
2023/09/13 06:45:27;;;;;;;7.83;3.80;;;;;;;;;;5098531;28;20226;-74
2023/09/13 06:47:58;;;;;;;5.73;3.30;;;;;;;;;;5106948;28;20203;-74
2023/09/13 06:50:29;;;;;;;5.80;2.83;;;;;;;;;;5098388;28;20227;-74
2023/09/13 06:53:17;;;;;;;3.67;2.77;;;;;;;;;;5097768;28;20683;-74
2023/09/13 06:55:48;;;;;;;5.33;2.87;;;;;;;;;;5095451;28;20207;-74
2023/09/13 06:58:20;;;;;;;3.83;2.90;;;;;;;;;;5098137;28;20652;-72
2023/09/13 07:00:51;;;;;;;4.13;2.80;;;;;;;;;;5098437;28;20247;-72
2023/09/13 07:03:43;;;;;;;6.30;3.07;;;;;;;;;;5098391;28;20205;-72
2023/09/13 07:06:18;;;;;;;7.23;3.37;;;;;;;;;;5101207;28;20205;-72
2023/09/13 07:08:46;;;;;;;7.00;3.83;;;;;;;;;;5098606;28;20208;-72
2023/09/13 07:11:15;;;;;;;8.87;4.40;;;;;;;;;;5098099;28;20232;-72
2023/09/13 07:13:43;;;;;;;11.33;4.70;;;;;;;;;;5098235;28;20244;-72
2023/09/13 07:16:12;;;;;;;4.03;2.87;;;;;;;;;;5098151;28;20223;-73
2023/09/13 07:18:40;;;;;;;4.17;3.17;;;;;;;;;;5098665;28;20206;-72
2023/09/13 07:21:09;;;;;;;4.83;3.17;;;;;;;;;;5099451;28;20725;-72
2023/09/13 07:23:40;;;;;;;6.57;3.43;;;;;;;;;;5105225;28;20208;-73
2023/09/13 07:26:08;;;;;;;4.63;3.10;;;;;;;;;;5097511;28;20293;-72
2023/09/13 07:28:36;;;;;;;5.80;3.23;;;;;;;;;;5098047;28;20203;-72
2023/09/13 07:31:12;;;;;;;8.27;3.17;;;;;;;;;;5095110;28;20220;-72
2023/09/13 07:33:40;;;;;;;5.33;3.67;;;;;;;;;;5090677;28;20220;-72
2023/09/13 07:36:09;;;;;;;3.47;2.87;;;;;;;;;;5097998;28;20208;-72
2023/09/13 07:38:37;;;;;;;3.57;3.23;;;;;;;;;;5097675;28;20202;-72
2023/09/13 07:41:07;;;;;;;5.63;3.53;;;;;;;;;;5091160;28;20233;-72
2023/09/13 07:43:35;;;;;;;6.00;3.00;;;;;;;;;;5097555;28;20210;-73
2023/09/13 07:46:04;;;;;;;3.00;2.73;;;;;;;;;;5097482;28;20612;-71
2023/09/13 07:48:32;;;;;;;3.77;2.87;;;;;;;;;;5097954;28;20209;-72
2023/09/13 07:51:00;;;;;;;5.13;2.60;;;;;;;;;;5097813;28;20279;-73
2023/09/13 07:53:28;;;;;;;6.03;2.60;;;;;;;;;;5097567;28;20209;-72
2023/09/13 07:55:59;;;;;;;2.50;2.30;;;;;;;;;;5100252;28;20204;-72
2023/09/13 07:58:29;;;;;;;5.07;2.50;;;;;;;;;;5100549;28;20236;-71
2023/09/13 08:00:57;;;;;;;4.40;2.53;;;;;;;;;;5097620;28;20270;-73
2023/09/13 08:03:25;;;;;;;1.90;1.80;;;;;;;;;;5097285;28;20209;-73
2023/09/13 08:05:53;;;;;;;2.07;1.80;;;;;;;;;;5097611;28;20574;-72
2023/09/13 08:08:23;;;;;;;2.40;2.23;;;;;;;;;;5097060;28;20229;-73
2023/09/13 08:10:51;;;;;;;6.87;2.53;;;;;;;;;;5097368;28;20225;-73
2023/09/13 08:13:21;;;;;;;2.77;2.23;;;;;;;;;;5102714;28;20604;-73
2023/09/13 08:15:50;;;;;;;3.53;2.37;;;;;;;;;;5097815;28;20201;-71
2023/09/13 08:18:19;;;;;;;3.90;2.10;;;;;;;;;;5101037;28;20205;-72
2023/09/13 08:20:47;;;;;;;4.80;2.27;;;;;;;;;;5101448;28;20229;-72
2023/09/13 08:23:16;;;;;;;2.63;1.97;;;;;;;;;;5101680;28;20288;-72
2023/09/13 08:25:45;;;;;;;2.60;2.40;;;;;;;;;;5100973;28;20288;-72
2023/09/13 08:28:13;;;;;;;5.37;2.37;;;;;;;;;;5101371;28;20289;-72
2023/09/13 08:30:41;;;;;;;2.40;2.20;;;;;;;;;;5103899;28;20569;-72
2023/09/13 08:33:11;;;;;;;3.10;2.20;;;;;;;;;;5101144;28;20548;-72
2023/09/13 08:35:43;;;;;;;2.43;1.93;;;;;;;;;;5101061;28;20243;-72
2023/09/13 08:38:11;;;;;;;2.40;1.90;;;;;;;;;;5100884;28;20209;-72
2023/09/13 08:40:43;;;;;;;4.10;2.13;;;;;;;;;;5100288;28;20703;-72
2023/09/13 08:43:12;;;;;;;4.63;2.23;;;;;;;;;;5100565;28;20205;-74
2023/09/13 08:45:40;;;;;;;7.10;4.60;;;;;;;;;;5085833;28;20197;-72
2023/09/13 08:48:11;;;;;;;3.87;2.73;;;;;;;;;;5104831;28;20214;-72
2023/09/13 08:50:40;;;;;;;4.27;2.60;;;;;;;;;;5100456;28;20249;-73
2023/09/13 08:53:09;;;;;;;3.17;2.67;;;;;;;;;;5100494;28;20208;-72
2023/09/13 08:55:37;;;;;;;3.10;2.57;;;;;;;;;;5097179;28;20308;-72
2023/09/13 08:58:06;;;;;;;2.97;2.67;;;;;;;;;;5100622;28;20320;-72
2023/09/13 09:00:37;;;;;;;7.07;3.07;;;;;;;;;;5100886;28;20371;-72
2023/09/13 09:03:06;;;;;;;3.67;2.80;;;;;;;;;;5101588;28;20660;-72
2023/09/13 09:05:36;;;;;;;2.80;2.53;;;;;;;;;;5109662;28;20201;-71
2023/09/13 09:08:05;;;;;;;2.73;2.50;;;;;;;;;;5100364;28;20213;-75
2023/09/13 09:10:33;;;;;;;4.53;3.10;;;;;;;;;;5099963;28;20773;-74
2023/09/13 09:13:02;;;;;;;3.60;3.03;;;;;;;;;;5100445;28;20235;-74
2023/09/13 09:15:31;;;;;;;4.93;3.17;;;;;;;;;;5100140;28;20608;-73
2023/09/13 09:18:01;;;;;;;3.33;3.03;;;;;;;;;;5100160;28;20210;-73
2023/09/13 09:20:30;;;;;;;4.70;3.17;;;;;;;;;;5105046;28;20236;-74
2023/09/13 09:22:59;;;;;;;7.23;3.33;;;;;;;;;;5100469;28;20573;-74
2023/09/13 09:25:31;;;;;;;5.33;3.30;;;;;;;;;;5099797;28;20202;-73
2023/09/13 09:28:02;;;;;;;5.60;3.77;;;;;;;;;;5098983;28;20551;-73
2023/09/13 09:30:31;;;;;;;5.30;3.67;;;;;;;;;;5099740;28;20238;-74
2023/09/13 09:33:03;;;;;;;7.73;3.40;;;;;;;;;;5089108;28;20235;-74
2023/09/13 09:35:31;;;;;;;4.63;4.20;;;;;;;;;;5099548;28;20287;-74
2023/09/13 09:38:01;;;;;;;5.10;3.63;;;;;;;;;;5106870;28;20258;-74
2023/09/13 09:40:36;;;;;;;5.47;3.70;;;;;;;;;;5099295;28;20574;-73
2023/09/13 09:43:05;;;;;;;8.07;3.93;;;;;;;;;;5097969;28;20575;-73
2023/09/13 09:45:33;;;;;;;6.90;3.77;;;;;;;;;;5099801;28;20236;-72
2023/09/13 09:48:02;;;;;;;5.40;4.33;;;;;;;;;;5099624;28;20215;-72
2023/09/13 09:50:32;;;;;;;5.07;3.90;;;;;;;;;;5099677;28;20221;-75
2023/09/13 09:53:08;;;;;;;4.10;3.70;;;;;;;;;;5099150;28;20240;-73
2023/09/13 09:55:37;;;;;;;7.50;4.47;;;;;;;;;;5098983;28;20226;-73
2023/09/13 09:58:05;;;;;;;4.90;4.40;;;;;;;;;;5096428;28;20237;-75
2023/09/13 10:00:43;;;;;;;5.37;4.57;;;;;;;;;;5098942;28;20789;-72
2023/09/13 10:03:17;;;;;;;7.77;4.40;;;;;;;;;;5099116;28;20551;-73
2023/09/13 10:05:52;;;;;;;6.40;4.37;;;;;;;;;;5099091;28;20668;-74
2023/09/13 10:08:35;;;;;;;4.73;3.80;;;;;;;;;;5099229;28;20238;-72
2023/09/13 10:11:04;;;;;;;7.63;5.20;;;;;;;;;;5099087;28;20232;-72
2023/09/13 10:13:32;;;;;;;4.80;3.70;;;;;;;;;;5098981;28;20730;-74
2023/09/13 10:16:01;;;;;;;5.30;4.30;;;;;;;;;;5098844;28;20756;-73
2023/09/13 10:18:31;;;;;;;9.20;4.50;;;;;;;;;;5098498;28;20748;-73
2023/09/13 10:20:59;;;;;;;6.03;4.60;;;;;;;;;;5098694;28;20230;-73
2023/09/13 10:23:30;;;;;;;6.23;3.50;;;;;;;;;;5098593;28;20210;-72
2023/09/13 10:25:59;;;;;;;6.67;3.77;;;;;;;;;;5098620;28;20654;-73
2023/09/13 10:28:27;;;;;;;5.00;3.33;;;;;;;;;;5098798;28;20260;-72
2023/09/13 10:30:58;;;;;;;3.60;3.03;;;;;;;;;;5098719;28;20235;-73
2023/09/13 10:33:28;;;;;;;4.30;3.40;;;;;;;;;;5098906;28;20242;-75
2023/09/13 10:35:59;;;;;;;4.57;3.20;;;;;;;;;;5098720;28;20292;-74
2023/09/13 10:38:32;;;;;;;4.27;3.17;;;;;;;;;;5098389;28;20558;-72
2023/09/13 10:41:02;;;;;;;4.13;2.47;;;;;;;;;;5098224;28;20248;-73
2023/09/13 10:43:31;;;;;;;4.40;3.30;;;;;;;;;;5098320;28;20270;-74
2023/09/13 10:46:02;;;;;;;4.83;3.60;;;;;;;;;;5098620;28;20290;-74
2023/09/13 10:48:31;;;;;;;3.73;3.03;;;;;;;;;;5098319;28;20617;-75
2023/09/13 10:51:00;;;;;;;5.30;3.33;;;;;;;;;;5098528;28;20254;-75
2023/09/13 10:53:30;;;;;;;4.80;3.77;;;;;;;;;;5097985;28;20304;-74
2023/09/13 10:55:58;;;;;;;3.60;2.50;;;;;;;;;;5093226;28;20222;-73
2023/09/13 10:58:26;;;;;;;6.20;3.17;;;;;;;;;;5096090;28;20238;-75
2023/09/13 11:00:55;;;;;;;2.87;2.67;;;;;;;;;;5098291;28;20229;-75
2023/09/13 11:03:23;;;;;;;6.30;3.00;;;;;;;;;;5097912;28;20202;-75
2023/09/13 11:05:53;;;;;;;2.73;2.53;;;;;;;;;;5098236;28;20553;-76
2023/09/13 11:08:30;;;;;;;3.00;2.50;;;;;;;;;;5098273;28;20210;-75
2023/09/13 11:11:08;;;;;;;2.87;2.43;;;;;;;;;;5097847;28;20230;-76
2023/09/13 11:13:39;;;;;;;7.40;2.50;;;;;;;;;;5101230;28;20198;-74
2023/09/13 11:16:07;;;;;;;4.90;2.80;;;;;;;;;;5097726;28;20626;-75
2023/09/13 11:18:46;;;;;;;2.87;2.50;;;;;;;;;;5098006;28;20615;-74
2023/09/13 11:21:18;;;;;;;3.83;2.73;;;;;;;;;;5097772;28;20232;-74
2023/09/13 11:23:52;;;;;;;6.93;2.37;;;;;;;;;;5098011;28;20202;-73
2023/09/13 11:26:42;;;;;;;3.23;2.57;;;;;;;;;;5096216;28;20199;-75
2023/09/13 11:29:21;;;;;;;2.70;2.37;;;;;;;;;;5097652;28;20217;-73
2023/09/13 11:31:59;;;;;;;3.10;2.47;;;;;;;;;;5095492;28;20257;-73
2023/09/13 11:34:29;;;;;;;3.30;2.07;;;;;;;;;;5086050;28;20202;-74
2023/09/13 11:37:01;;;;;;;3.03;1.97;;;;;;;;;;5097589;28;20226;-74
2023/09/13 11:39:31;;;;;;;2.37;2.00;;;;;;;;;;5097257;28;20209;-74
2023/09/13 11:41:59;;;;;;;2.60;2.20;;;;;;;;;;5087572;28;20245;-74
2023/09/13 11:44:27;;;;;;;5.10;2.33;;;;;;;;;;5097549;28;20554;-74
2023/09/13 11:46:59;;;;;;;2.77;2.30;;;;;;;;;;5098615;28;20215;-75
2023/09/13 11:49:27;;;;;;;2.23;2.00;;;;;;;;;;5099400;28;20247;-76
2023/09/13 11:52:05;;;;;;;2.60;2.33;;;;;;;;;;5093540;28;20206;-74
2023/09/13 11:57:51;;;;;;;3.00;1.77;;;;;;;;;;5115704;27;20546;-74
2023/09/13 12:00:27;;;;;;;2.30;2.10;;;;;;;;;;5100292;28;20227;-75
2023/09/13 12:02:58;;;;;;;2.07;1.87;;;;;;;;;;5095437;28;20223;-74
2023/09/13 12:05:30;;;;;;;2.23;1.90;;;;;;;;;;5084672;28;20290;-74
2023/09/13 12:08:20;;;;;;;2.00;1.80;;;;;;;;;;5094965;28;20681;-74
2023/09/13 12:10:52;;;;;;;1.90;1.70;;;;;;;;;;5094958;28;20221;-74
2023/09/13 12:13:38;;;;;;;1.80;1.63;;;;;;;;;;5094844;28;20216;-74
2023/09/13 12:16:22;;;;;;;3.30;1.20;;;;;;;;;;5094771;28;20228;-74
2023/09/13 12:18:50;;;;;;;1.57;1.47;;;;;;;;;;5095103;28;20234;-74
2023/09/13 12:21:18;;;;;;;1.37;1.27;;;;;;;;;;5091032;28;20309;-74
2023/09/13 12:23:47;;;;;;;3.93;1.63;;;;;;;;;;5094902;28;20210;-75
2023/09/13 12:26:16;;;;;;;1.60;1.50;;;;;;;;;;5094427;28;20200;-74
2023/09/13 12:28:46;;;;;;;1.70;1.13;;;;;;;;;;5095016;28;20213;-75
2023/09/13 12:31:15;;;;;;;2.40;0.93;;;;;;;;;;5094667;28;20228;-74
2023/09/13 12:33:46;;;;;;;2.87;1.13;;;;;;;;;;5094477;28;20576;-74
2023/09/13 12:36:14;;;;;;;2.77;1.60;;;;;;;;;;5094448;28;20249;-74
2023/09/13 12:38:46;;;;;;;1.47;1.20;;;;;;;;;;5089865;28;20208;-74
2023/09/13 12:41:16;;;;;;;2.73;1.50;;;;;;;;;;5094163;28;20226;-74
2023/09/13 12:43:45;;;;;;;2.40;1.30;;;;;;;;;;5094390;28;20264;-74
2023/09/13 12:46:18;;;;;;;2.40;1.23;;;;;;;;;;5094241;28;20296;-74
2023/09/13 12:48:50;;;;;;;2.83;1.80;;;;;;;;;;5094166;28;20728;-74
2023/09/13 12:51:21;;;;;;;4.20;1.87;;;;;;;;;;5090690;28;20286;-74
2023/09/13 12:53:51;;;;;;;3.53;1.73;;;;;;;;;;5093000;28;20218;-74
2023/09/13 12:56:19;;;;;;;3.50;2.30;;;;;;;;;;5081981;28;20710;-74
2023/09/13 12:58:48;;;;;;;4.03;2.40;;;;;;;;;;5094075;28;20212;-75
2023/09/13 13:01:16;;;;;;;3.20;2.70;;;;;;;;;;5094238;28;20250;-74
2023/09/13 13:03:58;;;;;;;4.07;2.13;;;;;;;;;;5083227;28;20208;-75
2023/09/13 13:06:31;;;;;;;6.37;1.87;;;;;;;;;;5093960;28;20205;-74
2023/09/13 13:09:05;;;;;;;1.20;1.20;;;;;;;;;;5079730;28;20665;-75
2023/09/13 13:11:33;;;;;;;1.27;1.13;;;;;;;;;;5080147;28;20249;-75
2023/09/13 13:14:02;;;;;;;0.70;0.70;;;;;;;;;;5070818;28;20297;-76
2023/09/13 13:16:30;;;;;;;1.53;1.10;;;;;;;;;;5080267;28;20234;-75
2023/09/13 13:19:14;;;;;;;2.07;1.17;;;;;;;;;;5080123;28;20571;-74
2023/09/13 13:21:51;;;;;;;1.60;1.50;;;;;;;;;;5079849;28;20229;-73
2023/09/13 13:24:38;;;;;;;1.40;1.30;;;;;;;;;;5079836;28;20206;-74
2023/09/13 13:27:07;;;;;;;3.60;1.20;;;;;;;;;;5079881;28;20285;-74
2023/09/13 13:29:36;;;;;;;1.07;1.00;;;;;;;;;;5074924;28;20738;-73
2023/09/13 13:32:04;;;;;;;1.43;1.33;;;;;;;;;;5075152;28;20206;-73
2023/09/13 13:34:34;;;;;;;2.43;1.57;;;;;;;;;;5079828;28;20210;-74
2023/09/13 13:37:02;;;;;;;1.70;1.60;;;;;;;;;;5079758;28;20226;-74
2023/09/13 13:39:30;;;;;;;2.50;2.30;;;;;;;;;;5079361;28;20569;-73
2023/09/13 13:41:59;;;;;;;1.80;1.70;;;;;;;;;;5079843;28;20226;-73
2023/09/13 13:44:27;;;;;;;11.80;7.07;;;;;;;;;;5079638;28;20265;-74
2023/09/13 13:46:55;;;;;;;5.30;2.67;;;;;;;;;;5070543;28;20221;-75
2023/09/13 13:49:23;;;;;;;4.67;2.20;;;;;;;;;;5078270;28;20210;-74
2023/09/13 13:51:53;;;;;;;3.50;2.20;;;;;;;;;;5074868;28;20222;-74
2023/09/13 13:54:22;;;;;;;2.33;1.67;;;;;;;;;;5078988;28;20217;-75
2023/09/13 13:56:50;;;;;;;2.17;1.80;;;;;;;;;;5079266;28;20595;-75
2023/09/13 13:59:18;;;;;;;2.57;1.20;;;;;;;;;;5079416;28;20628;-74
2023/09/13 14:01:47;;;;;;;2.47;1.50;;;;;;;;;;5079502;28;20313;-74
2023/09/13 14:04:16;;;;;;;2.67;1.47;;;;;;;;;;5078676;28;20206;-74
2023/09/13 14:06:45;;;;;;;2.00;1.13;;;;;;;;;;5079541;28;20208;-75
2023/09/13 14:09:16;;;;;;;2.93;1.30;;;;;;;;;;5079378;28;20255;-76
2023/09/13 14:11:45;;;;;;;1.70;0.90;;;;;;;;;;5079120;28;20233;-77
2023/09/13 14:14:17;;;;;;;1.53;1.20;;;;;;;;;;5079599;28;20207;-75
2023/09/13 14:16:46;;;;;;;1.20;1.20;;;;;;;;;;5079600;28;20227;-75
2023/09/13 14:19:14;;;;;;;1.80;1.00;;;;;;;;;;5078383;28;20694;-76
2023/09/13 14:21:43;;;;;;;3.27;1.17;;;;;;;;;;5066801;28;20239;-76
2023/09/13 14:24:11;;;;;;;1.77;1.13;;;;;;;;;;5079067;28;20214;-75
2023/09/13 14:26:41;;;;;;;1.70;1.30;;;;;;;;;;5079210;28;20286;-75
2023/09/13 14:29:11;;;;;;;1.37;1.37;;;;;;;;;;5078823;28;20286;-75
2023/09/13 14:31:39;;;;;;;2.67;1.23;;;;;;;;;;5078078;28;20228;-75
2023/09/13 14:34:08;;;;;;;2.20;1.27;;;;;;;;;;5078768;28;20234;-75
2023/09/13 14:36:36;;;;;;;2.50;1.20;;;;;;;;;;5079665;28;20212;-75
2023/09/13 14:39:04;;;;;;;2.27;1.03;;;;;;;;;;5072842;28;20240;-75
2023/09/13 14:41:33;;;;;;;1.43;1.33;;;;;;;;;;5078334;28;20219;-75
2023/09/13 14:44:02;;;;;;;2.70;1.60;;;;;;;;;;5078794;28;20223;-75
2023/09/13 14:46:30;;;;;;;1.23;1.10;;;;;;;;;;5065125;28;20290;-76
2023/09/13 14:48:59;;;;;;;5.63;1.27;;;;;;;;;;5078175;28;20596;-77
2023/09/13 14:51:27;;;;;;;1.27;1.17;;;;;;;;;;5071745;28;20249;-73
2023/09/13 14:53:55;;;;;;;2.37;1.57;;;;;;;;;;5077046;28;20210;-74
2023/09/13 14:56:23;;;;;;;2.93;1.30;;;;;;;;;;5065862;28;20249;-75
2023/09/13 14:58:51;;;;;;;1.53;1.30;;;;;;;;;;5077677;28;20286;-73
2023/09/13 15:01:21;;;;;;;3.37;2.80;;;;;;;;;;5066609;28;20276;-77
2023/09/13 15:03:49;;;;;;;1.77;1.20;;;;;;;;;;5069270;28;20205;-75